»·PEaware :: N721AP KGPI-KBFI

N721AP :: KGPI-KBFI

FLIGHT INFORMATION

Flight Status: Arrived
Operator: Privately registered:
United States
More flights under this callsign
Pilot: Sally S. (18014)
Aircraft: Unknown
(SF50)
More flights by this aircraft type
Origin: KGPI Glacier Park Intl
United States
Destination: KBFI Boeing Field/King Co Intl
United States
More flights between these airports :: More routes between these airports
Route: SKOTT2 SKOTT V231 CHARL V120 MLP GLASR1
File this flight plan on PilotEdge
Remarks:
Altitude:
(Current/Filed)
22,000ft
Speed:
(Current/Filed)
250kts
Departed: 24-Mar-18 09:44 AM
Arrived: 24-Mar-18 11:21 AM
Distance/Time
Traveled:
327nm/1:36
Distance/Time
To Go:
Arrived

Flight Plot

Page will automatically refresh every two minutes.

Flight plan parsing failed; only flown route is shown


Map Options




Map Legend


Flown Route
Filed Route
Departure Airport
Arrival Airport
Navaid (VOR, NDB)
Fix

Horizontal Profiles

Position Reports

Time Latitude Longitude Heading Altitude Ground
Speed
24-Mar-18 08:57 48.309846 -114.252121 345 2981ft 0kts
24-Mar-18 08:58 48.309846 -114.252121 345 2981ft 0kts
24-Mar-18 08:59 48.309846 -114.252121 345 2981ft 0kts
24-Mar-18 09:00 48.309846 -114.252121 345 2981ft 0kts
24-Mar-18 09:01 48.309846 -114.252121 345 2981ft 0kts
24-Mar-18 09:02 48.309846 -114.252121 345 2981ft 0kts
24-Mar-18 09:03 48.309846 -114.252121 345 2981ft 0kts
24-Mar-18 09:04 48.309846 -114.252121 345 2981ft 0kts
24-Mar-18 09:05 48.309846 -114.252121 345 2981ft 0kts
24-Mar-18 09:06 48.309846 -114.252121 345 2981ft 0kts
24-Mar-18 09:07 48.309846 -114.252121 345 2981ft 0kts
24-Mar-18 09:08 48.309846 -114.252121 345 2981ft 0kts
24-Mar-18 09:09 48.309846 -114.252121 345 2981ft 0kts
24-Mar-18 09:10 48.309846 -114.252121 345 2981ft 0kts
24-Mar-18 09:11 48.309846 -114.252121 345 2981ft 0kts
24-Mar-18 09:12 48.309846 -114.252121 345 2981ft 0kts
24-Mar-18 09:13 48.309846 -114.252121 345 2981ft 0kts
24-Mar-18 09:14 48.309846 -114.252121 345 2981ft 0kts
24-Mar-18 09:15 48.309846 -114.252121 345 2981ft 0kts
24-Mar-18 09:16 48.309846 -114.252121 345 2981ft 0kts
24-Mar-18 09:17 48.309846 -114.252121 345 2981ft 0kts
24-Mar-18 09:18 48.309846 -114.252121 345 2981ft 0kts
24-Mar-18 09:19 48.309846 -114.252121 345 2981ft 0kts
24-Mar-18 09:20 48.309846 -114.252121 345 2981ft 0kts
24-Mar-18 09:21 48.309846 -114.252121 345 2981ft 0kts
24-Mar-18 09:22 48.309846 -114.252121 345 2981ft 0kts
24-Mar-18 09:23 48.309846 -114.252121 345 2981ft 0kts
24-Mar-18 09:24 48.309846 -114.252121 345 2981ft 0kts
24-Mar-18 09:25 48.309846 -114.252121 345 2981ft 0kts
24-Mar-18 09:26 48.309846 -114.252121 345 2981ft 0kts
24-Mar-18 09:27 48.309846 -114.252121 345 2981ft 0kts
24-Mar-18 09:28 48.309846 -114.252121 345 2981ft 0kts
24-Mar-18 09:29 48.309846 -114.252121 345 2981ft 0kts
24-Mar-18 09:30 48.309846 -114.252121 345 2981ft 0kts
24-Mar-18 09:31 48.309846 -114.252121 345 2981ft 0kts
24-Mar-18 09:32 48.309846 -114.252121 345 2981ft 0kts
24-Mar-18 09:33 48.309846 -114.252121 345 2981ft 0kts
24-Mar-18 09:34 48.309846 -114.252121 345 2981ft 0kts
24-Mar-18 09:35 48.310180 -114.253783 213 2981ft 9kts
24-Mar-18 09:36 48.308191 -114.255798 213 2981ft 13kts
24-Mar-18 09:37 48.305255 -114.258878 215 2981ft 13kts
24-Mar-18 09:38 48.302055 -114.262158 214 2981ft 11kts
24-Mar-18 09:39 48.298724 -114.265714 213 2981ft 18kts
24-Mar-18 09:40 48.298461 -114.266467 284 2981ft 0kts
24-Mar-18 09:41 48.298498 -114.266640 290 2981ft 9kts
24-Mar-18 09:42 48.299134 -114.267322 32 2981ft 0kts
24-Mar-18 09:43 48.304201 -114.262078 33 2988ft 106kts
24-Mar-18 09:44 48.334037 -114.234879 349 5332ft 137kts
24-Mar-18 09:45 48.329629 -114.278629 191 7558ft 194kts
24-Mar-18 09:46 48.284298 -114.227288 162 10249ft 198kts
24-Mar-18 09:47 48.234917 -114.191209 162 12684ft 197kts
24-Mar-18 09:48 48.185243 -114.154428 163 14738ft 202kts
24-Mar-18 09:49 48.133938 -114.153684 195 16616ft 188kts
24-Mar-18 09:50 48.081319 -114.159680 188 18330ft 194kts
24-Mar-18 09:51 48.027635 -114.161811 187 19868ft 197kts
24-Mar-18 09:52 47.972297 -114.158444 186 21246ft 201kts
24-Mar-18 09:53 47.913531 -114.154426 188 21751ft 229kts
24-Mar-18 09:54 47.883994 -114.233913 241 21764ft 250kts
24-Mar-18 09:55 47.855435 -114.331893 241 21756ft 263kts
24-Mar-18 09:56 47.825729 -114.432290 241 21754ft 267kts
24-Mar-18 09:57 47.791846 -114.529619 231 21751ft 264kts
24-Mar-18 09:58 47.762457 -114.631097 242 21750ft 266kts
24-Mar-18 09:59 47.731406 -114.729267 240 21757ft 262kts
24-Mar-18 10:00 47.701459 -114.827787 241 21756ft 261kts
24-Mar-18 10:01 47.672235 -114.926081 241 21755ft 260kts
24-Mar-18 10:02 47.642711 -115.024457 241 21755ft 265kts
24-Mar-18 10:03 47.611006 -115.124978 241 21753ft 271kts
24-Mar-18 10:04 47.577810 -115.225934 241 21753ft 276kts
24-Mar-18 10:05 47.543833 -115.328028 241 21760ft 277kts
24-Mar-18 10:06 47.510091 -115.429795 242 21781ft 277kts
24-Mar-18 10:07 47.476289 -115.531884 242 21791ft 277kts
24-Mar-18 10:08 47.442517 -115.633912 242 21803ft 276kts
24-Mar-18 10:09 47.426975 -115.739392 294 21817ft 308kts
24-Mar-18 10:10 47.466484 -115.847584 274 21817ft 293kts
24-Mar-18 10:11 47.476623 -115.966403 269 21816ft 291kts
24-Mar-18 10:12 47.483906 -116.085627 269 21816ft 291kts
24-Mar-18 10:13 47.490931 -116.204904 269 21815ft 291kts
24-Mar-18 10:14 47.497814 -116.323953 269 21814ft 291kts
24-Mar-18 10:15 47.504574 -116.443079 268 21813ft 291kts
24-Mar-18 10:16 47.511222 -116.562334 269 21813ft 291kts
24-Mar-18 10:17 47.517618 -116.679414 268 21818ft 291kts
24-Mar-18 10:18 47.523994 -116.798190 268 21818ft 291kts
24-Mar-18 10:19 47.530289 -116.917939 268 21816ft 292kts
24-Mar-18 10:20 47.536461 -117.038028 268 21811ft 296kts
24-Mar-18 10:21 47.542642 -117.160397 269 21808ft 302kts
24-Mar-18 10:22 47.548813 -117.285164 269 21807ft 305kts
24-Mar-18 10:23 47.554852 -117.410210 269 21804ft 305kts
24-Mar-18 10:24 47.560779 -117.535836 269 21794ft 305kts
24-Mar-18 10:25 47.568248 -117.659581 272 21790ft 307kts
24-Mar-18 10:26 47.580208 -117.784606 272 21790ft 307kts
24-Mar-18 10:27 47.592093 -117.909526 272 21790ft 307kts
24-Mar-18 10:28 47.603864 -118.034690 272 21790ft 307kts
24-Mar-18 10:29 47.615527 -118.160153 272 21789ft 307kts
24-Mar-18 10:30 47.627033 -118.285567 272 21789ft 307kts
24-Mar-18 10:31 47.638381 -118.410701 272 21797ft 306kts
24-Mar-18 10:32 47.649583 -118.535849 272 21811ft 306kts
24-Mar-18 10:33 47.660464 -118.658931 271 21817ft 306kts
24-Mar-18 10:34 47.671361 -118.783693 272 21818ft 307kts
24-Mar-18 10:35 47.682099 -118.909052 273 21818ft 306kts
24-Mar-18 10:36 47.692739 -119.034104 275 21816ft 306kts
24-Mar-18 10:37 47.703315 -119.159426 275 21813ft 306kts
24-Mar-18 10:38 47.713667 -119.284380 275 21807ft 306kts
24-Mar-18 10:39 47.723934 -119.410041 275 21806ft 306kts
24-Mar-18 10:40 47.734004 -119.535055 275 21806ft 306kts
24-Mar-18 10:41 47.743779 -119.658133 274 21807ft 305kts
24-Mar-18 10:42 47.753645 -119.784095 274 21809ft 306kts
24-Mar-18 10:43 47.763286 -119.908945 274 21813ft 306kts
24-Mar-18 10:44 47.773007 -120.034825 275 21817ft 306kts
24-Mar-18 10:45 47.783363 -120.139218 277 21781ft 308kts
24-Mar-18 10:46 47.803247 -120.287637 281 21158ft 317kts
24-Mar-18 10:47 47.821023 -120.392088 283 19898ft 307kts
24-Mar-18 10:48 47.796027 -120.512149 215 18091ft 301kts
24-Mar-18 10:49 47.738305 -120.568808 216 16837ft 299kts
24-Mar-18 10:50 47.699213 -120.674520 304 15066ft 298kts
24-Mar-18 10:51 47.761929 -120.684710 14 13871ft 311kts
24-Mar-18 10:52 47.817831 -120.757140 250 12017ft 293kts
24-Mar-18 10:53 47.796966 -120.848346 261 11838ft 267kts
24-Mar-18 10:54 47.801067 -120.955422 278 11850ft 256kts
24-Mar-18 10:55 47.812962 -121.060968 279 11907ft 278kts
24-Mar-18 10:56 47.826226 -121.174610 279 11962ft 266kts
24-Mar-18 10:57 47.838558 -121.281107 278 11370ft 273kts
24-Mar-18 10:58 47.851471 -121.393542 278 11006ft 270kts
24-Mar-18 10:59 47.862907 -121.500108 279 11004ft 257kts
24-Mar-18 11:00 47.875996 -121.601733 276 11005ft 245kts
24-Mar-18 11:01 47.885171 -121.702275 275 11013ft 261kts
24-Mar-18 11:02 47.862838 -121.792192 193 11000ft 272kts
24-Mar-18 11:03 47.792160 -121.832341 221 9748ft 264kts
24-Mar-18 11:04 47.794088 -121.912815 314 8235ft 258kts
24-Mar-18 11:05 47.845420 -121.982569 315 7715ft 250kts
24-Mar-18 11:06 47.890429 -122.063116 268 6230ft 266kts
24-Mar-18 11:07 47.903495 -122.166148 327 4739ft 281kts
24-Mar-18 11:08 47.945515 -122.239866 267 3191ft 253kts
24-Mar-18 11:09 47.939570 -122.332765 245 2989ft 200kts
24-Mar-18 11:10 47.919622 -122.405661 233 2979ft 182kts
24-Mar-18 11:11 47.878845 -122.452977 216 2995ft 192kts
24-Mar-18 11:12 47.835233 -122.501994 216 2993ft 201kts
24-Mar-18 11:13 47.781209 -122.508709 160 2976ft 208kts
24-Mar-18 11:14 47.726895 -122.473632 166 2471ft 223kts
24-Mar-18 11:15 47.676407 -122.427215 151 1684ft 189kts
24-Mar-18 11:16 47.629908 -122.387376 152 1453ft 181kts
24-Mar-18 11:17 47.588248 -122.351999 151 869ft 167kts
24-Mar-18 11:18 47.559512 -122.327495 153 630ft 120kts
24-Mar-18 11:19 47.536400 -122.307859 154 27ft 58kts
24-Mar-18 11:20 47.533880 -122.304358 96 24ft 17kts
24-Mar-18 11:21 47.533850 -122.303447 84 24ft 0kts

Navigation Log

Ident Type
Flight plan parsing failed, navigation log unavailable